Time;durP1;ratioP1;P1;durP2;ratioP2;P2;SDS_P1;SDS_P2;PMS_P1;PMS_P2;Temp;Humidity;BMP_temperature;BMP_pressure;BME280_temperature;BME280_humidity;BME280_pressure;Samples;Min_cycle;Max_cycle;Signal;HPM_P1;HPM_P2
2023/05/11 00:01:26;;;;;;;17.55;12.90;;;;;;;11.85;89.87;101221.91;4837837;29;20034;-82
2023/05/11 00:03:51;;;;;;;17.23;12.45;;;;;;;11.84;90.10;101218.38;4836498;29;20059;-82
2023/05/11 00:06:16;;;;;;;19.98;13.52;;;;;;;11.83;89.97;101214.00;4836866;29;20056;-82
2023/05/11 00:08:42;;;;;;;17.92;12.15;;;;;;;11.82;90.08;101215.88;4840225;29;20038;-82
2023/05/11 00:11:07;;;;;;;16.27;11.73;;;;;;;11.89;90.08;101223.19;4838576;29;20390;-82
2023/05/11 00:13:33;;;;;;;18.80;13.43;;;;;;;11.91;90.16;101221.13;4830522;29;20121;-82
2023/05/11 00:15:58;;;;;;;17.58;12.73;;;;;;;11.91;90.25;101211.16;4831126;29;20030;-82
2023/05/11 00:18:23;;;;;;;15.95;11.82;;;;;;;11.93;90.46;101206.41;4822733;29;20037;-82
2023/05/11 00:20:49;;;;;;;16.35;11.80;;;;;;;11.93;90.03;101203.72;4839974;29;20036;-82
2023/05/11 00:23:15;;;;;;;16.05;12.25;;;;;;;11.92;89.89;101202.03;4839633;29;20038;-82
2023/05/11 00:25:40;;;;;;;15.07;11.98;;;;;;;11.92;90.12;101207.44;4840211;29;20052;-81
2023/05/11 00:28:06;;;;;;;17.13;12.35;;;;;;;11.92;90.24;101212.00;4824020;29;20026;-81
2023/05/11 00:30:32;;;;;;;15.90;12.10;;;;;;;11.92;89.84;101201.19;4830612;29;20054;-82
2023/05/11 00:32:57;;;;;;;15.80;11.38;;;;;;;11.92;90.21;101207.44;4832295;29;20121;-82
2023/05/11 00:35:23;;;;;;;16.98;12.40;;;;;;;11.92;89.80;101198.50;4822965;29;20106;-82
2023/05/11 00:37:48;;;;;;;18.73;11.68;;;;;;;11.92;90.35;101195.81;4822662;29;20050;-81
2023/05/11 00:40:14;;;;;;;18.48;12.05;;;;;;;11.91;90.10;101199.56;4834431;29;20026;-82
2023/05/11 00:42:39;;;;;;;18.02;12.55;;;;;;;11.89;89.95;101193.53;4836802;29;20379;-81
2023/05/11 00:45:05;;;;;;;16.48;12.30;;;;;;;11.89;90.09;101188.94;4839073;29;20033;-82
2023/05/11 00:47:31;;;;;;;16.98;11.98;;;;;;;11.88;90.07;101189.16;4829941;29;20042;-82
2023/05/11 00:49:56;;;;;;;18.77;13.43;;;;;;;11.87;90.23;101193.69;4819208;29;20030;-82
2023/05/11 00:52:21;;;;;;;20.92;13.45;;;;;;;11.87;90.57;101188.31;4840366;29;20038;-82
2023/05/11 00:54:47;;;;;;;17.08;12.55;;;;;;;11.90;90.50;101197.88;4823145;29;20514;-82
2023/05/11 00:57:13;;;;;;;17.52;12.68;;;;;;;11.90;90.42;101196.00;4832994;29;20034;-81
2023/05/11 00:59:38;;;;;;;20.48;13.43;;;;;;;11.87;90.99;101198.28;4823568;29;20585;-82
2023/05/11 01:02:03;;;;;;;18.20;13.05;;;;;;;11.81;90.89;101197.22;4838095;29;20459;-82
2023/05/11 01:04:29;;;;;;;20.58;13.57;;;;;;;11.81;91.17;101195.31;4820603;29;20040;-82
2023/05/11 01:07:19;;;;;;;20.00;13.95;;;;;;;11.78;91.16;101198.41;4820234;29;20046;-82
2023/05/11 01:09:54;;;;;;;18.38;13.30;;;;;;;11.77;91.33;101199.44;4835293;29;20040;-82
2023/05/11 01:12:38;;;;;;;19.05;13.95;;;;;;;11.76;91.12;101196.94;4830422;29;20151;-81
2023/05/11 01:15:13;;;;;;;18.27;13.40;;;;;;;11.78;91.42;101205.69;4836331;29;20589;-82
2023/05/11 01:17:54;;;;;;;19.42;13.52;;;;;;;11.78;91.33;101211.09;4836163;29;20042;-81
2023/05/11 01:20:26;;;;;;;21.80;14.55;;;;;;;11.78;91.55;101211.09;4837410;29;20474;-82
2023/05/11 01:23:07;;;;;;;19.20;13.25;;;;;;;11.79;91.09;101208.16;4804447;29;20042;-81
2023/05/11 01:25:48;;;;;;;18.83;12.48;;;;;;;11.91;91.04;101207.66;4829602;29;20159;-82
2023/05/11 01:28:34;;;;;;;17.98;12.70;;;;;;;12.05;90.89;101205.88;4813343;29;20050;-82
2023/05/11 01:31:09;;;;;;;15.80;11.90;;;;;;;12.24;90.15;101202.47;4816730;29;20038;-82
2023/05/11 01:33:36;;;;;;;14.25;11.32;;;;;;;12.25;89.75;101209.53;4809599;29;20287;-80
2023/05/11 01:36:08;;;;;;;16.13;11.18;;;;;;;12.16;89.29;101201.81;4822120;29;20046;-81
2023/05/11 01:38:34;;;;;;;17.48;12.60;;;;;;;12.13;89.58;101206.56;4815021;29;20034;-82
2023/05/11 01:40:59;;;;;;;13.88;11.05;;;;;;;12.28;89.40;101203.75;4816366;29;20026;-82
2023/05/11 01:43:25;;;;;;;16.92;11.80;;;;;;;12.34;89.04;101201.28;4821527;29;20056;-82
2023/05/11 01:45:51;;;;;;;14.98;11.50;;;;;;;12.35;88.59;101211.06;4802572;29;20077;-82
2023/05/11 01:48:19;;;;;;;14.75;11.98;;;;;;;12.40;88.54;101208.56;4831364;29;20083;-82
2023/05/11 01:50:44;;;;;;;16.17;11.98;;;;;;;12.41;88.56;101210.22;4835989;29;20030;-82
2023/05/11 01:53:11;;;;;;;16.33;11.80;;;;;;;12.38;88.45;101208.78;4822551;29;20097;-82
2023/05/11 01:55:36;;;;;;;17.35;12.65;;;;;;;12.21;88.26;101210.13;4819803;29;20030;-82
2023/05/11 01:58:02;;;;;;;18.98;13.15;;;;;;;12.01;88.75;101208.16;4819919;29;20074;-82
2023/05/11 02:00:28;;;;;;;17.73;13.27;;;;;;;11.95;88.81;101212.44;4820387;29;20062;-82
2023/05/11 02:02:53;;;;;;;21.20;14.00;;;;;;;11.88;89.12;101211.56;4821963;29;20026;-81
2023/05/11 02:05:21;;;;;;;20.60;13.35;;;;;;;11.90;88.98;101214.91;4817590;29;20050;-82
2023/05/11 02:07:47;;;;;;;16.35;11.00;;;;;;;11.95;87.99;101211.59;4821870;29;20529;-82
2023/05/11 02:10:13;;;;;;;15.10;11.13;;;;;;;12.18;86.55;101205.97;4818933;29;20044;-82
2023/05/11 02:12:38;;;;;;;16.92;11.50;;;;;;;12.22;86.32;101207.22;4805729;29;20396;-82
2023/05/11 02:15:04;;;;;;;17.15;11.48;;;;;;;12.08;86.18;101200.09;4803783;29;20031;-81
2023/05/11 02:17:30;;;;;;;18.33;10.75;;;;;;;11.91;86.68;101202.25;4810969;29;20070;-81
2023/05/11 02:19:56;;;;;;;15.52;10.82;;;;;;;11.96;87.10;101211.41;4813108;29;20112;-81
2023/05/11 02:22:22;;;;;;;15.52;10.88;;;;;;;12.16;86.66;101208.03;4813679;29;20501;-81
2023/05/11 02:24:47;;;;;;;13.70;9.77;;;;;;;12.15;85.92;101217.16;4839020;29;20574;-81
2023/05/11 02:27:13;;;;;;;11.93;9.10;;;;;;;12.17;84.74;101227.75;4818038;29;20047;-82
2023/05/11 02:29:38;;;;;;;12.40;8.88;;;;;;;12.05;84.19;101228.31;4837779;29;20038;-81
2023/05/11 02:32:08;;;;;;;15.07;9.40;;;;;;;11.95;84.98;101234.03;4837605;29;20037;-82
2023/05/11 02:34:41;;;;;;;12.07;8.18;;;;;;;11.88;84.90;101245.81;4819352;29;20109;-83
2023/05/11 02:37:09;;;;;;;9.45;7.57;;;;;;;11.75;85.59;101255.44;4829506;29;20070;-85
2023/05/11 02:39:37;;;;;;;7.72;5.68;;;;;;;11.59;84.71;101272.75;4841194;29;20102;-85
2023/05/11 02:42:29;;;;;;;6.07;4.80;;;;;;;11.40;84.13;101278.78;4826639;29;20078;-84
2023/05/11 02:44:58;;;;;;;5.75;3.88;;;;;;;11.07;83.84;101270.16;4822298;29;20052;-83
2023/05/11 02:47:35;;;;;;;11.13;6.93;;;;;;;10.92;85.17;101266.66;4810704;29;20030;-85
2023/05/11 02:50:03;;;;;;;11.48;6.88;;;;;;;10.81;86.83;101261.75;4806350;29;20034;-79
2023/05/11 02:52:28;;;;;;;9.35;6.57;;;;;;;10.70;87.59;101269.28;4826882;29;20543;-79
2023/05/11 02:54:53;;;;;;;6.57;4.90;;;;;;;10.60;87.34;101272.25;4825124;29;20030;-79
2023/05/11 02:57:19;;;;;;;5.85;4.28;;;;;;;10.54;86.96;101267.63;4823650;29;20030;-79
2023/05/11 02:59:45;;;;;;;3.03;2.55;;;;;;;10.66;87.24;101267.97;4841586;29;21201;-78
2023/05/11 03:02:11;;;;;;;3.25;2.55;;;;;;;10.77;86.77;101259.41;4842185;29;20030;-78
2023/05/11 03:04:40;;;;;;;3.05;2.20;;;;;;;10.86;86.88;101262.03;4836530;29;20395;-78
2023/05/11 03:07:06;;;;;;;2.47;1.65;;;;;;;10.77;86.38;101254.03;4823446;29;20046;-78
2023/05/11 03:09:31;;;;;;;1.92;1.40;;;;;;;10.73;86.11;101251.91;4819336;29;20063;-78
2023/05/11 03:11:56;;;;;;;2.97;1.58;;;;;;;10.57;86.61;101253.78;4820187;29;20042;-77
2023/05/11 03:14:22;;;;;;;2.15;1.67;;;;;;;10.37;87.74;101242.72;4818923;29;20031;-78
2023/05/11 03:16:50;;;;;;;2.00;1.80;;;;;;;10.31;88.83;101249.69;4820491;29;20042;-78
2023/05/11 03:19:15;;;;;;;1.90;1.60;;;;;;;10.44;88.58;101249.06;4818841;29;20194;-78
2023/05/11 03:21:41;;;;;;;2.05;1.80;;;;;;;10.44;88.80;101238.28;4821975;29;20072;-78
2023/05/11 03:24:06;;;;;;;2.33;1.92;;;;;;;10.37;88.76;101237.34;4821381;29;20035;-78
2023/05/11 03:26:32;;;;;;;2.83;2.10;;;;;;;10.30;89.26;101245.34;4820285;29;20441;-79
2023/05/11 03:28:58;;;;;;;2.20;2.00;;;;;;;10.28;89.88;101249.22;4819837;29;20034;-78
2023/05/11 03:31:23;;;;;;;2.42;2.00;;;;;;;10.29;90.06;101245.50;4807598;29;20034;-78
2023/05/11 03:33:48;;;;;;;2.60;2.40;;;;;;;10.32;90.39;101240.56;4820929;29;20547;-78
2023/05/11 03:36:14;;;;;;;2.40;1.88;;;;;;;10.31;90.84;101255.09;4820835;29;20042;-78
2023/05/11 03:38:39;;;;;;;3.40;2.50;;;;;;;10.33;91.06;101244.13;4819055;29;20482;-78
2023/05/11 03:41:05;;;;;;;2.63;1.92;;;;;;;10.32;91.28;101248.66;4818827;29;20042;-79
2023/05/11 03:43:31;;;;;;;3.00;2.00;;;;;;;10.30;90.81;101242.66;4820496;29;20141;-79
2023/05/11 03:45:56;;;;;;;2.63;2.13;;;;;;;10.28;90.99;101236.63;4818216;29;20391;-79
2023/05/11 03:48:21;;;;;;;2.85;2.50;;;;;;;10.30;91.33;101239.09;4819393;29;20475;-79
2023/05/11 03:50:47;;;;;;;2.58;2.30;;;;;;;10.29;91.34;101240.97;4820679;29;20048;-80
2023/05/11 03:53:12;;;;;;;3.33;2.60;;;;;;;10.20;91.13;101243.94;4818753;29;20053;-79
2023/05/11 03:55:37;;;;;;;3.45;2.63;;;;;;;10.19;91.37;101234.19;4805615;29;20042;-79
2023/05/11 03:58:09;;;;;;;3.13;2.63;;;;;;;10.19;91.13;101243.09;4804213;29;20500;-79
2023/05/11 04:00:41;;;;;;;3.70;2.55;;;;;;;10.21;91.11;101232.97;4815830;29;20027;-79
2023/05/11 04:03:07;;;;;;;4.38;3.00;;;;;;;10.27;91.57;101236.78;4819656;29;20471;-79
2023/05/11 04:05:32;;;;;;;3.97;2.80;;;;;;;10.29;91.88;101230.22;4819311;29;20113;-79
2023/05/11 04:07:58;;;;;;;4.78;2.88;;;;;;;10.30;91.60;101239.09;4837390;29;20052;-79
2023/05/11 04:10:23;;;;;;;3.80;2.80;;;;;;;10.32;91.76;101239.75;4822153;29;20026;-79
2023/05/11 04:12:49;;;;;;;4.22;2.55;;;;;;;10.27;92.04;101236.78;4836005;29;20066;-78
2023/05/11 04:15:14;;;;;;;4.53;3.00;;;;;;;10.27;91.49;101239.47;4839300;29;20022;-79
2023/05/11 04:17:39;;;;;;;3.47;2.85;;;;;;;10.32;91.66;101229.00;4841130;29;20309;-79
2023/05/11 04:20:05;;;;;;;4.43;3.08;;;;;;;10.36;92.07;101238.38;4840905;29;20033;-80
2023/05/11 04:22:31;;;;;;;5.25;3.65;;;;;;;10.36;92.11;101241.06;4831918;29;20038;-80
2023/05/11 04:24:56;;;;;;;6.80;3.65;;;;;;;10.32;92.09;101243.28;4823677;29;20027;-80
2023/05/11 04:27:22;;;;;;;5.15;3.45;;;;;;;10.31;91.82;101246.16;4839294;29;20446;-80
2023/05/11 04:29:47;;;;;;;3.22;2.92;;;;;;;10.28;91.65;101255.44;4839904;29;20060;-80
2023/05/11 04:32:13;;;;;;;4.15;3.13;;;;;;;10.33;91.48;101254.88;4839858;29;20455;-81
2023/05/11 04:34:38;;;;;;;3.55;3.13;;;;;;;10.35;91.46;101252.84;4840927;29;20060;-80
2023/05/11 04:37:06;;;;;;;3.78;3.20;;;;;;;10.36;91.25;101254.53;4835628;29;20082;-79
2023/05/11 04:39:32;;;;;;;3.88;3.20;;;;;;;10.39;91.38;101259.56;4840589;29;20109;-79
2023/05/11 04:41:58;;;;;;;3.80;3.28;;;;;;;10.44;91.56;101257.13;4840528;29;20036;-79
2023/05/11 04:44:23;;;;;;;6.60;3.92;;;;;;;10.41;91.58;101251.28;4823887;29;20039;-79
2023/05/11 04:46:52;;;;;;;5.65;3.55;;;;;;;10.45;91.63;101250.72;4836925;29;20105;-79
2023/05/11 04:49:18;;;;;;;5.13;3.55;;;;;;;10.51;92.35;101245.63;4821641;29;20042;-79
2023/05/11 04:51:43;;;;;;;4.30;3.42;;;;;;;10.59;92.15;101245.53;4838763;29;20486;-78
2023/05/11 04:54:11;;;;;;;4.60;3.50;;;;;;;10.65;91.93;101239.38;4836946;29;20038;-78
2023/05/11 04:56:40;;;;;;;5.70;3.80;;;;;;;10.73;91.83;101242.00;4837417;29;20038;-78
2023/05/11 04:59:06;;;;;;;4.30;3.40;;;;;;;10.85;91.95;101246.88;4837475;29;20041;-78
2023/05/11 05:01:31;;;;;;;5.25;3.65;;;;;;;11.03;91.85;101244.59;4837667;29;20027;-78
2023/05/11 05:03:57;;;;;;;4.35;3.47;;;;;;;11.38;91.18;101243.94;4828217;29;20801;-78
2023/05/11 05:06:22;;;;;;;3.40;3.10;;;;;;;11.74;90.21;101250.25;4838750;29;20046;-78
2023/05/11 05:08:47;;;;;;;2.80;2.50;;;;;;;12.09;87.51;101250.34;4838846;29;20038;-80
2023/05/11 05:11:13;;;;;;;3.25;2.63;;;;;;;11.96;84.80;101251.03;4828928;29;20083;-78
2023/05/11 05:13:38;;;;;;;3.40;2.65;;;;;;;12.00;85.27;101251.53;4832480;29;20038;-79
2023/05/11 05:16:04;;;;;;;3.83;3.00;;;;;;;11.91;85.76;101250.81;4836124;29;20026;-78
2023/05/11 05:18:32;;;;;;;4.70;3.25;;;;;;;11.77;85.76;101260.66;4838081;29;20037;-79
2023/05/11 05:20:58;;;;;;;3.63;3.10;;;;;;;11.62;86.16;101258.03;4836266;29;20038;-78
2023/05/11 05:23:23;;;;;;;3.78;2.75;;;;;;;11.60;86.28;101252.84;4838493;29;20033;-78
2023/05/11 05:25:49;;;;;;;3.05;2.53;;;;;;;11.68;85.92;101266.19;4838107;29;20070;-79
2023/05/11 05:28:14;;;;;;;3.65;2.97;;;;;;;11.84;85.55;101272.31;4834890;29;20417;-78
2023/05/11 05:30:39;;;;;;;3.15;2.85;;;;;;;11.96;85.57;101272.63;4829558;29;20034;-78
2023/05/11 05:33:05;;;;;;;4.03;2.53;;;;;;;12.21;85.13;101283.84;4838375;29;20030;-78
2023/05/11 05:35:30;;;;;;;3.00;2.60;;;;;;;12.53;83.03;101284.22;4838289;29;20029;-78
2023/05/11 05:37:58;;;;;;;3.00;2.70;;;;;;;12.79;81.31;101282.72;4829176;29;20057;-78
2023/05/11 05:40:24;;;;;;;4.78;2.85;;;;;;;13.18;81.62;101286.59;4831775;29;20038;-82
2023/05/11 05:42:49;;;;;;;2.92;2.50;;;;;;;13.38;79.95;101290.38;4820050;29;20035;-85
2023/05/11 05:45:15;;;;;;;3.00;2.42;;;;;;;13.85;78.25;101291.31;4836391;29;20040;-83
2023/05/11 05:47:40;;;;;;;2.60;2.40;;;;;;;14.21;75.48;101291.91;4836476;29;20436;-83
2023/05/11 05:50:06;;;;;;;2.83;2.42;;;;;;;14.09;76.27;101295.25;4838274;29;20094;-88
2023/05/11 05:52:35;;;;;;;3.03;2.28;;;;;;;14.34;74.41;101305.41;4836507;29;20022;-88
2023/05/11 06:04:41;;;;;;;3.38;3.00;;;;;;;13.68;78.09;101304.41;4828073;29;20046;-84
2023/05/11 06:07:07;;;;;;;4.28;3.80;;;;;;;13.37;78.45;101307.66;4835626;29;20049;-82
2023/05/11 06:20:07;;;;;;;4.38;3.53;;;;;;;13.03;80.08;101310.25;4823305;29;20053;-90
2023/05/11 06:22:34;;;;;;;4.60;3.92;;;;;;;13.03;81.62;101312.97;4824155;29;20034;-92
2023/05/11 06:24:59;;;;;;;3.42;3.13;;;;;;;13.62;78.68;101307.94;4826155;29;20038;-92
2023/05/11 06:27:25;;;;;;;4.75;4.07;;;;;;;13.30;78.92;101307.63;4828748;29;20034;-91
2023/05/11 06:29:50;;;;;;;6.57;3.95;;;;;;;13.44;78.98;101305.81;4828701;29;20092;-89
2023/05/11 06:32:18;;;;;;;5.20;4.13;;;;;;;13.87;77.09;101316.28;4829233;29;20030;-93
2023/05/11 06:34:47;;;;;;;5.97;5.00;;;;;;;13.95;75.79;101323.34;4832669;29;20127;-92
2023/05/11 06:37:21;;;;;;;5.93;4.75;;;;;;;14.54;74.15;101316.22;4828293;29;20474;-90
2023/05/11 06:39:48;;;;;;;7.30;5.10;;;;;;;15.40;70.50;101326.97;4844799;29;20046;-94
2023/05/11 06:42:13;;;;;;;4.93;4.40;;;;;;;15.84;70.66;101329.81;4840129;29;20399;-93
2023/05/11 06:44:40;;;;;;;7.18;5.18;;;;;;;16.41;69.01;101322.66;4827789;29;20030;-93
2023/05/11 06:47:06;;;;;;;7.28;5.15;;;;;;;16.82;69.72;101319.28;4834135;29;20035;-92
2023/05/11 06:49:31;;;;;;;5.13;4.55;;;;;;;17.39;66.10;101329.03;4833912;29;20369;-82
2023/05/11 06:51:57;;;;;;;6.63;5.07;;;;;;;18.16;61.08;101330.19;4825308;29;20111;-86
2023/05/11 06:54:22;;;;;;;7.53;5.57;;;;;;;16.98;64.83;101327.91;4824849;29;20031;-88
2023/05/11 06:56:47;;;;;;;6.95;5.40;;;;;;;16.27;68.00;101335.53;4825431;29;20045;-88
2023/05/11 06:59:16;;;;;;;7.65;5.53;;;;;;;16.15;68.71;101336.25;4909342;24;20062;-89
2023/05/11 07:01:41;;;;;;;6.25;5.10;;;;;;;15.99;68.94;101325.97;4826580;29;20030;-90
2023/05/11 07:04:10;;;;;;;6.82;5.15;;;;;;;15.15;70.64;101337.75;4831813;29;20352;-84
2023/05/11 07:06:46;;;;;;;6.63;5.20;;;;;;;15.25;70.30;101332.66;4837947;29;20037;-85
2023/05/11 07:09:11;;;;;;;5.93;5.32;;;;;;;15.67;72.31;101331.41;4837200;29;20038;-84
2023/05/11 07:11:36;;;;;;;6.55;5.28;;;;;;;15.30;70.78;101335.56;4824652;29;20035;-85
2023/05/11 07:14:02;;;;;;;5.88;5.20;;;;;;;15.36;73.88;101333.03;4824254;29;20556;-84
2023/05/11 07:16:28;;;;;;;6.90;5.55;;;;;;;15.54;73.73;101337.72;4822906;29;20094;-84
2023/05/11 07:18:53;;;;;;;6.00;5.40;;;;;;;15.34;70.34;101329.72;4824704;29;20034;-84
2023/05/11 07:21:20;;;;;;;5.68;4.78;;;;;;;15.63;69.29;101332.88;4836945;29;20038;-84
2023/05/11 07:23:49;;;;;;;6.65;5.05;;;;;;;15.72;69.04;101331.53;4825293;29;20858;-84
2023/05/11 07:26:15;;;;;;;6.80;5.43;;;;;;;15.70;71.60;101339.09;4842937;29;20120;-84
2023/05/11 07:28:42;;;;;;;7.18;5.18;;;;;;;15.92;70.15;101339.59;4844623;29;20029;-84
2023/05/11 07:31:11;;;;;;;6.13;4.70;;;;;;;15.97;68.89;101344.34;4839976;29;20045;-84
2023/05/11 07:33:38;;;;;;;6.07;5.15;;;;;;;15.67;68.65;101342.25;4815852;29;20040;-84
2023/05/11 07:36:06;;;;;;;5.45;4.78;;;;;;;16.14;66.85;101350.09;4817549;29;20429;-84
2023/05/11 07:38:31;;;;;;;4.40;3.92;;;;;;;17.22;63.62;101333.47;4809898;29;20038;-87
2023/05/11 07:40:57;;;;;;;5.35;4.80;;;;;;;17.18;66.91;101340.41;4834265;29;20063;-84
2023/05/11 07:43:22;;;;;;;5.82;4.68;;;;;;;17.20;65.30;101341.03;4828228;29;20037;-84
2023/05/11 07:45:47;;;;;;;5.53;4.65;;;;;;;17.12;65.60;101334.81;4834553;29;20045;-85
2023/05/11 07:48:13;;;;;;;5.90;5.10;;;;;;;16.79;67.53;101343.38;4822755;29;20122;-84
2023/05/11 07:50:40;;;;;;;6.18;5.30;;;;;;;16.96;68.44;101335.44;4825331;29;20034;-85
2023/05/11 07:53:05;;;;;;;6.40;5.15;;;;;;;17.09;68.30;101332.59;4814252;29;20054;-84
2023/05/11 07:55:30;;;;;;;6.85;5.15;;;;;;;17.36;67.32;101334.13;4825903;29;20502;-83
2023/05/11 07:57:56;;;;;;;6.03;5.10;;;;;;;17.24;67.34;101336.78;4822716;29;20042;-83
2023/05/11 08:00:21;;;;;;;7.53;5.10;;;;;;;16.73;67.07;101333.38;4805589;29;20058;-84
2023/05/11 08:02:47;;;;;;;6.75;5.30;;;;;;;16.82;67.97;101335.59;4820821;29;20031;-84
2023/05/11 08:05:12;;;;;;;5.88;4.80;;;;;;;16.87;67.21;101339.50;4822471;29;20085;-83
2023/05/11 08:07:38;;;;;;;4.40;4.00;;;;;;;17.02;66.91;101333.72;4812982;29;20101;-81
2023/05/11 08:10:03;;;;;;;5.15;4.40;;;;;;;17.05;66.67;101331.38;4810449;29;20137;-83
2023/05/11 08:12:31;;;;;;;6.13;4.60;;;;;;;16.43;66.41;101332.22;4823718;29;20033;-83
2023/05/11 08:14:57;;;;;;;5.45;4.75;;;;;;;16.54;66.54;101332.56;4820956;29;20083;-84
2023/05/11 08:17:22;;;;;;;5.30;4.70;;;;;;;16.60;68.88;101331.66;4822102;29;20034;-84
2023/05/11 08:19:50;;;;;;;5.63;4.80;;;;;;;16.72;68.70;101340.72;4822636;29;20030;-86
2023/05/11 08:22:16;;;;;;;6.07;5.03;;;;;;;17.07;65.94;101348.31;4818806;29;20129;-81
2023/05/11 08:24:41;;;;;;;6.18;5.00;;;;;;;16.87;63.15;101344.94;4820523;29;20491;-82
2023/05/11 08:27:09;;;;;;;5.15;4.65;;;;;;;17.34;62.97;101345.22;4826095;29;20057;-83
2023/05/11 08:29:35;;;;;;;5.72;5.05;;;;;;;17.65;62.11;101347.94;4840800;29;20360;-81
2023/05/11 08:32:00;;;;;;;6.18;4.63;;;;;;;18.08;59.69;101346.03;4820783;29;20052;-81
2023/05/11 08:34:26;;;;;;;5.47;4.88;;;;;;;17.54;61.96;101339.50;4821150;29;20049;-81
2023/05/11 08:36:53;;;;;;;5.25;4.72;;;;;;;17.21;63.60;101337.25;4813545;29;20058;-80
2023/05/11 08:39:20;;;;;;;5.43;4.60;;;;;;;17.68;63.99;101334.69;4819938;29;20074;-83
2023/05/11 08:41:45;;;;;;;6.32;4.70;;;;;;;17.80;64.96;101344.78;4821789;29;20050;-81
2023/05/11 08:44:15;;;;;;;5.03;4.53;;;;;;;18.13;63.94;101341.53;4821596;29;20042;-81
2023/05/11 08:46:40;;;;;;;4.10;3.70;;;;;;;18.86;63.05;101341.28;4822505;29;20568;-81
2023/05/11 08:49:06;;;;;;;4.28;3.88;;;;;;;20.14;61.40;101350.19;4820306;29;20038;-81
2023/05/11 08:51:32;;;;;;;4.10;3.70;;;;;;;21.88;57.69;101349.06;4791487;29;20038;-82
2023/05/11 08:54:00;;;;;;;3.70;3.30;;;;;;;22.63;54.48;101344.63;4810620;29;20034;-82
2023/05/11 08:56:26;;;;;;;3.45;3.10;;;;;;;21.65;52.69;101351.03;4803028;29;20124;-81
2023/05/11 08:58:53;;;;;;;2.65;2.45;;;;;;;21.61;51.77;101352.66;4807354;29;20055;-80
2023/05/11 09:01:19;;;;;;;2.28;2.10;;;;;;;20.85;51.83;101345.19;4805086;29;20038;-81
2023/05/11 09:03:45;;;;;;;2.22;2.03;;;;;;;20.62;54.73;101348.97;4803455;29;20487;-80
2023/05/11 09:06:10;;;;;;;2.08;1.98;;;;;;;21.27;53.71;101354.75;4804653;29;20045;-80
2023/05/11 09:08:36;;;;;;;1.98;1.77;;;;;;;21.88;47.98;101349.06;4805457;29;20035;-81
2023/05/11 09:11:02;;;;;;;2.03;1.83;;;;;;;22.24;50.35;101349.31;4804973;29;20039;-82
2023/05/11 09:13:28;;;;;;;2.20;2.00;;;;;;;21.85;51.83;101348.72;4803920;29;20609;-81
2023/05/11 09:15:57;;;;;;;2.38;2.00;;;;;;;21.99;53.07;101341.72;4803413;29;20031;-82
2023/05/11 09:18:27;;;;;;;2.40;2.20;;;;;;;21.70;50.22;101341.22;4804812;29;20094;-83
2023/05/11 09:20:52;;;;;;;2.40;2.20;;;;;;;21.39;51.77;101343.63;4806927;29;20039;-83
2023/05/11 09:23:18;;;;;;;3.47;2.00;;;;;;;21.64;51.05;101337.59;4819653;29;20098;-83
2023/05/11 09:28:26;;;;;;;2.17;1.92;;;;;;;21.40;51.29;101337.06;4870978;24;20073;-83
2023/05/11 09:30:52;;;;;;;2.60;2.08;;;;;;;21.54;53.21;101337.47;4836648;29;20050;-84
2023/05/11 09:33:25;;;;;;;2.20;2.00;;;;;;;21.92;46.95;101327.44;4839548;29;20050;-82
2023/05/11 09:35:50;;;;;;;2.13;1.92;;;;;;;22.13;48.87;101331.13;4836002;29;20042;-83
2023/05/11 09:38:17;;;;;;;2.33;1.83;;;;;;;21.90;49.86;101333.16;4837221;29;20475;-84
2023/05/11 09:40:50;;;;;;;3.65;3.30;;;;;;;21.73;50.51;101326.97;4838956;29;20081;-83
2023/05/11 09:43:33;;;;;;;3.78;2.60;;;;;;;21.90;48.88;101329.59;4841379;29;20073;-84
2023/05/11 09:46:06;;;;;;;4.53;2.67;;;;;;;21.30;48.09;101324.91;4822600;29;20065;-83
2023/05/11 09:48:31;;;;;;;3.50;2.50;;;;;;;20.98;49.10;101331.16;4832365;29;20522;-84
2023/05/11 09:51:06;;;;;;;14.48;8.38;;;;;;;20.41;51.11;101333.09;4839928;29;20029;-83
2023/05/11 09:53:44;;;;;;;55.00;20.57;;;;;;;19.91;53.40;101334.78;4839678;29;20034;-82
2023/05/11 09:56:10;;;;;;;2.42;2.17;;;;;;;19.96;50.31;101326.69;4840044;29;20799;-82
2023/05/11 09:58:49;;;;;;;3.00;2.00;;;;;;;19.94;51.94;101334.31;4838273;29;20037;-83
2023/05/11 10:01:15;;;;;;;2.17;1.98;;;;;;;19.67;49.46;101328.63;4839004;29;20041;-83
2023/05/11 10:03:53;;;;;;;10.10;6.68;;;;;;;19.99;54.95;101339.00;4836640;29;20109;-82
2023/05/11 10:06:19;;;;;;;8.82;5.80;;;;;;;20.54;52.92;101333.81;4829046;29;20537;-83
2023/05/11 10:08:44;;;;;;;7.35;4.07;;;;;;;20.57;57.27;101323.19;4832265;29;20038;-80
2023/05/11 10:11:10;;;;;;;5.97;2.47;;;;;;;20.78;50.58;101328.97;4837633;29;20038;-82
2023/05/11 10:13:36;;;;;;;1.80;1.70;;;;;;;20.76;48.69;101322.91;4837091;29;20029;-82
2023/05/11 10:16:03;;;;;;;1.52;1.42;;;;;;;21.02;45.31;101334.19;4825111;29;20060;-82
2023/05/11 10:18:28;;;;;;;1.70;1.60;;;;;;;20.86;48.22;101327.69;4840219;29;20053;-83
2023/05/11 10:20:55;;;;;;;2.08;1.88;;;;;;;20.60;48.65;101322.69;4830494;29;20034;-82
2023/05/11 10:23:20;;;;;;;1.88;1.77;;;;;;;20.53;48.85;101329.41;4848620;24;20450;-84
2023/05/11 10:25:48;;;;;;;2.30;2.10;;;;;;;20.59;50.58;101321.03;4839013;29;20030;-81
2023/05/11 10:28:14;;;;;;;2.30;2.10;;;;;;;20.69;49.23;101327.72;4834252;29;20475;-82
2023/05/11 10:30:39;;;;;;;2.70;2.50;;;;;;;20.54;50.32;101323.72;4820968;29;20030;-82
2023/05/11 10:33:05;;;;;;;2.83;2.35;;;;;;;20.46;53.27;101329.59;4833712;29;20672;-82
2023/05/11 10:35:30;;;;;;;2.53;2.33;;;;;;;20.46;50.58;101332.34;4839935;29;20038;-83
2023/05/11 10:37:57;;;;;;;2.88;2.55;;;;;;;20.20;50.25;101336.59;4835847;29;20037;-82
2023/05/11 10:40:23;;;;;;;2.97;2.67;;;;;;;19.34;52.49;101327.47;4823162;29;20037;-81
2023/05/11 10:43:32;;;;;;;2.88;2.65;;;;;;;18.97;52.12;101320.53;4835825;29;20034;-80
2023/05/11 10:46:18;;;;;;;2.45;2.25;;;;;;;19.05;51.87;101322.03;4839726;29;20066;-81
2023/05/11 10:48:56;;;;;;;2.65;2.42;;;;;;;19.26;52.60;101325.13;4830294;29;20038;-81
2023/05/11 10:51:37;;;;;;;2.95;2.65;;;;;;;19.43;51.32;101325.19;4823369;29;20415;-82
2023/05/11 10:54:17;;;;;;;2.50;2.30;;;;;;;19.16;52.55;101323.88;4837139;29;20035;-82
2023/05/11 10:57:11;;;;;;;2.30;2.10;;;;;;;19.29;53.07;101325.50;4820521;29;20453;-80
2023/05/11 10:59:50;;;;;;;2.88;2.65;;;;;;;19.28;51.48;101328.44;4840003;29;20564;-79
2023/05/11 11:02:17;;;;;;;3.10;2.88;;;;;;;18.93;53.65;101331.03;4823387;29;20463;-80
2023/05/11 11:04:46;;;;;;;3.00;2.72;;;;;;;18.91;52.22;101329.63;4835835;29;20054;-81
2023/05/11 11:07:16;;;;;;;3.00;2.80;;;;;;;18.51;54.46;101328.53;4833440;29;20546;-81
2023/05/11 11:09:58;;;;;;;2.90;2.55;;;;;;;18.54;53.51;101327.19;4834176;29;20475;-81
2023/05/11 11:12:26;;;;;;;2.67;2.42;;;;;;;18.58;54.77;101331.13;4831494;29;20043;-81
2023/05/11 11:14:57;;;;;;;2.78;2.47;;;;;;;18.97;52.31;101322.41;4838969;29;20026;-83
2023/05/11 11:17:30;;;;;;;3.30;3.00;;;;;;;18.52;54.23;101323.88;4840842;29;20068;-83
2023/05/11 11:19:56;;;;;;;3.45;2.83;;;;;;;17.75;56.98;101320.97;4839768;29;20034;-79
2023/05/11 11:22:34;;;;;;;3.10;2.80;;;;;;;17.95;56.31;101320.66;4836019;29;20061;-78
2023/05/11 11:25:00;;;;;;;2.70;2.50;;;;;;;18.48;55.31;101321.63;4840542;29;20044;-78
2023/05/11 11:27:43;;;;;;;4.65;3.25;;;;;;;17.85;59.16;101325.84;4842585;29;20033;-79
2023/05/11 11:30:18;;;;;;;5.43;4.60;;;;;;;17.53;61.43;101323.41;4828251;29;20041;-79
2023/05/11 11:32:44;;;;;;;4.57;4.10;;;;;;;17.73;61.26;101321.22;4841646;29;20078;-78
2023/05/11 11:36:02;;;;;;;4.25;3.85;;;;;;;17.88;60.78;101320.78;4840933;29;20041;-78
2023/05/11 11:38:26;;;;;;;4.50;4.05;;;;;;;17.66;60.82;101314.22;4840141;29;20042;-77
2023/05/11 11:40:52;;;;;;;5.10;4.07;;;;;;;18.00;59.94;101320.78;4828910;29;20117;-77
2023/05/11 11:43:26;;;;;;;5.55;4.30;;;;;;;18.70;59.28;101318.28;4824772;29;20030;-78
2023/05/11 11:45:53;;;;;;;5.95;4.38;;;;;;;18.94;59.25;101310.91;4837756;29;20042;-77
2023/05/11 11:48:34;;;;;;;3.50;3.20;;;;;;;19.64;54.64;101320.91;4829121;29;20102;-78